ACA34 KJFK-CYYZ
Flight info
| Callsign | ACA34 |
|---|---|
| Flight time | N/A |
| Altitude | 18000 |
| Route | GAYEL Q818 WOZEE LINNG3 |
| Aircraft | B77W/H-SDE1E2E3FGHIJ2J3J4J5M1RWXY/LB1D1 |
Departure
| Time | 2026-05-08 00:52 |
|---|---|
| Airport | John F. Kennedy International Airport (KJFK) |
Arrival
| Time | N/A |
|---|---|
| Airport | Toronto Pearson International Airport (CYYZ) |
| Time | Latitude | Longitude | Altitude | Speed | Heading |
|---|---|---|---|---|---|
| 2026-05-08 00:22 | 40.64018 | -73.78061 | 28 ft | 0 kts | 247° |
| 2026-05-08 00:35 | 40.64019 | -73.78059 | 28 ft | 2 kts | 247° |
| 2026-05-08 00:35 | 40.64024 | -73.78042 | 26 ft | 2 kts | 242° |
| 2026-05-08 00:36 | 40.64037 | -73.78021 | 25 ft | 3 kts | 215° |
| 2026-05-08 00:36 | 40.64056 | -73.78006 | 26 ft | 3 kts | 204° |
| 2026-05-08 00:36 | 40.64079 | -73.78001 | 27 ft | 4 kts | 160° |
| 2026-05-08 00:36 | 40.64086 | -73.78005 | 25 ft | 0 kts | 153° |
| 2026-05-08 00:42 | 40.64080 | -73.78001 | 28 ft | 4 kts | 153° |
| 2026-05-08 00:42 | 40.64049 | -73.77979 | 28 ft | 7 kts | 153° |
| 2026-05-08 00:43 | 40.63998 | -73.77953 | 28 ft | 10 kts | 162° |
| 2026-05-08 00:43 | 40.63932 | -73.77939 | 28 ft | 10 kts | 174° |
| 2026-05-08 00:43 | 40.63894 | -73.77935 | 28 ft | 3 kts | 175° |
| 2026-05-08 00:43 | 40.63869 | -73.77932 | 28 ft | 5 kts | 174° |
| 2026-05-08 00:44 | 40.63814 | -73.77924 | 28 ft | 9 kts | 172° |
| 2026-05-08 00:44 | 40.63751 | -73.77911 | 28 ft | 9 kts | 171° |
| 2026-05-08 00:44 | 40.63685 | -73.77898 | 28 ft | 10 kts | 173° |
| 2026-05-08 00:44 | 40.63620 | -73.77888 | 28 ft | 9 kts | 172° |
| 2026-05-08 00:45 | 40.63562 | -73.77839 | 27 ft | 13 kts | 131° |
| 2026-05-08 00:45 | 40.63520 | -73.77745 | 26 ft | 10 kts | 104° |
| 2026-05-08 00:45 | 40.63554 | -73.77675 | 30 ft | 10 kts | 37° |
| 2026-05-08 00:45 | 40.63617 | -73.77622 | 28 ft | 11 kts | 31° |
| 2026-05-08 00:46 | 40.63687 | -73.77568 | 26 ft | 12 kts | 31° |
| 2026-05-08 00:46 | 40.63753 | -73.77516 | 27 ft | 10 kts | 31° |
| 2026-05-08 00:46 | 40.63815 | -73.77468 | 27 ft | 10 kts | 31° |
| 2026-05-08 00:46 | 40.63876 | -73.77418 | 31 ft | 10 kts | 32° |
| 2026-05-08 00:47 | 40.63938 | -73.77369 | 32 ft | 10 kts | 31° |
| 2026-05-08 00:47 | 40.64001 | -73.77320 | 28 ft | 10 kts | 30° |
| 2026-05-08 00:47 | 40.64065 | -73.77271 | 28 ft | 12 kts | 30° |
| 2026-05-08 00:47 | 40.64140 | -73.77213 | 30 ft | 13 kts | 31° |
| 2026-05-08 00:48 | 40.64225 | -73.77147 | 28 ft | 16 kts | 31° |
| 2026-05-08 00:48 | 40.64321 | -73.77067 | 28 ft | 16 kts | 32° |
| 2026-05-08 00:48 | 40.64424 | -73.77005 | 29 ft | 15 kts | 15° |
| 2026-05-08 00:48 | 40.64519 | -73.76974 | 25 ft | 15 kts | 19° |
| 2026-05-08 00:49 | 40.64610 | -73.76909 | 27 ft | 15 kts | 31° |
| 2026-05-08 00:49 | 40.64703 | -73.76835 | 27 ft | 16 kts | 31° |
| 2026-05-08 00:49 | 40.64796 | -73.76761 | 28 ft | 16 kts | 31° |
| 2026-05-08 00:49 | 40.64889 | -73.76689 | 26 ft | 16 kts | 31° |
| 2026-05-08 00:50 | 40.64981 | -73.76617 | 32 ft | 16 kts | 30° |
| 2026-05-08 00:50 | 40.65068 | -73.76549 | 30 ft | 13 kts | 33° |
| 2026-05-08 00:50 | 40.65095 | -73.76484 | 27 ft | 3 kts | 96° |
| 2026-05-08 00:50 | 40.65094 | -73.76482 | 27 ft | 0 kts | 99° |
| 2026-05-08 00:51 | 40.65082 | -73.76439 | 27 ft | 9 kts | 117° |
| 2026-05-08 00:51 | 40.65047 | -73.76367 | 27 ft | 10 kts | 141° |
| 2026-05-08 00:51 | 40.64980 | -73.76384 | 27 ft | 10 kts | 212° |
| 2026-05-08 00:51 | 40.64952 | -73.76408 | 27 ft | 14 kts | 212° |
| 2026-05-08 00:52 | 40.64705 | -73.76605 | 31 ft | 81 kts | 211° |
| 2026-05-08 00:52 | 40.63979 | -73.77167 | 28 ft | 157 kts | 211° |
| 2026-05-08 00:52 | 40.62943 | -73.77968 | 477 ft | 179 kts | 210° |
| 2026-05-08 00:52 | 40.61813 | -73.78845 | 1084 ft | 198 kts | 211° |
| 2026-05-08 00:53 | 40.60631 | -73.79786 | 1951 ft | 199 kts | 211° |
| 2026-05-08 00:53 | 40.59411 | -73.80779 | 2535 ft | 215 kts | 214° |
| 2026-05-08 00:53 | 40.58075 | -73.81916 | 2912 ft | 243 kts | 214° |
| 2026-05-08 00:53 | 40.56587 | -73.83197 | 3465 ft | 262 kts | 215° |
| 2026-05-08 00:54 | 40.55024 | -73.84357 | 4500 ft | 262 kts | 201° |
| 2026-05-08 00:54 | 40.53200 | -73.84673 | 4969 ft | 270 kts | 174° |
| 2026-05-08 00:54 | 40.51405 | -73.83862 | 5095 ft | 278 kts | 145° |
| 2026-05-08 00:54 | 40.50124 | -73.81964 | 5953 ft | 281 kts | 117° |
| 2026-05-08 00:55 | 40.49622 | -73.79492 | 6897 ft | 285 kts | 91° |
| 2026-05-08 00:55 | 40.49959 | -73.76950 | 7678 ft | 289 kts | 66° |
| 2026-05-08 00:55 | 40.50850 | -73.74536 | 8443 ft | 298 kts | 59° |
| 2026-05-08 00:55 | 40.51862 | -73.72130 | 9287 ft | 304 kts | 57° |
| 2026-05-08 00:56 | 40.52905 | -73.69666 | 10097 ft | 311 kts | 57° |
| 2026-05-08 00:56 | 40.53989 | -73.67114 | 10605 ft | 332 kts | 58° |
| 2026-05-08 00:56 | 40.55181 | -73.64351 | 10815 ft | 362 kts | 57° |
| 2026-05-08 00:56 | 40.56608 | -73.61520 | 10989 ft | 382 kts | 43° |
| 2026-05-08 00:57 | 40.58822 | -73.59544 | 11435 ft | 389 kts | 15° |
| 2026-05-08 00:57 | 40.61464 | -73.59012 | 12275 ft | 383 kts | 349° |
| 2026-05-08 00:57 | 40.63967 | -73.59947 | 13260 ft | 373 kts | 324° |
| 2026-05-08 00:57 | 40.65905 | -73.62093 | 14223 ft | 357 kts | 304° |
| 2026-05-08 00:58 | 40.67648 | -73.64495 | 14880 ft | 372 kts | 310° |
| 2026-05-08 00:58 | 40.69652 | -73.66653 | 15830 ft | 382 kts | 315° |
| 2026-05-08 00:58 | 40.71812 | -73.68747 | 16767 ft | 389 kts | 316° |
| 2026-05-08 00:58 | 40.74037 | -73.70840 | 17033 ft | 395 kts | 316° |
| 2026-05-08 00:59 | 40.76286 | -73.72945 | 17005 ft | 396 kts | 316° |
| 2026-05-08 00:59 | 40.78524 | -73.75049 | 17011 ft | 394 kts | 316° |
| 2026-05-08 00:59 | 40.80769 | -73.77185 | 17715 ft | 400 kts | 315° |
| 2026-05-08 00:59 | 40.83036 | -73.79358 | 18679 ft | 403 kts | 315° |
| 2026-05-08 01:00 | 40.85306 | -73.81543 | 19668 ft | 406 kts | 315° |
| 2026-05-08 01:00 | 40.87593 | -73.83752 | 20591 ft | 409 kts | 314° |
| 2026-05-08 01:00 | 40.89899 | -73.85985 | 21472 ft | 412 kts | 314° |
| 2026-05-08 01:00 | 40.92226 | -73.88243 | 22338 ft | 417 kts | 314° |
| 2026-05-08 01:01 | 40.94550 | -73.90500 | 23209 ft | 420 kts | 314° |
| 2026-05-08 01:01 | 40.96912 | -73.92796 | 23920 ft | 424 kts | 314° |
| 2026-05-08 01:01 | 40.99298 | -73.95117 | 24641 ft | 427 kts | 314° |
| 2026-05-08 01:01 | 41.01691 | -73.97444 | 25379 ft | 428 kts | 314° |
| 2026-05-08 01:02 | 41.04099 | -73.99786 | 26096 ft | 430 kts | 313° |
| 2026-05-08 01:02 | 41.06525 | -74.02149 | 26759 ft | 433 kts | 313° |
| 2026-05-08 01:02 | 41.08966 | -74.04533 | 27366 ft | 438 kts | 313° |
| 2026-05-08 01:02 | 41.11428 | -74.06941 | 27964 ft | 441 kts | 313° |
| 2026-05-08 01:03 | 41.13904 | -74.09361 | 28561 ft | 444 kts | 313° |
| 2026-05-08 01:03 | 41.16396 | -74.11798 | 29129 ft | 445 kts | 313° |
| 2026-05-08 01:03 | 41.18897 | -74.14243 | 29625 ft | 448 kts | 312° |
| 2026-05-08 01:03 | 41.21418 | -74.16717 | 30034 ft | 452 kts | 312° |
| 2026-05-08 01:04 | 41.23947 | -74.19203 | 30401 ft | 454 kts | 312° |
| 2026-05-08 01:04 | 41.26489 | -74.21707 | 30798 ft | 455 kts | 312° |
| 2026-05-08 01:04 | 41.28998 | -74.24170 | 31300 ft | 453 kts | 313° |
| 2026-05-08 01:04 | 41.31539 | -74.26655 | 31845 ft | 451 kts | 313° |
| 2026-05-08 01:05 | 41.34055 | -74.29128 | 32371 ft | 450 kts | 313° |
| 2026-05-08 01:05 | 41.36564 | -74.31626 | 32805 ft | 448 kts | 311° |
| 2026-05-08 01:05 | 41.38853 | -74.34374 | 33230 ft | 437 kts | 304° |
| 2026-05-08 01:05 | 41.40870 | -74.37366 | 33705 ft | 432 kts | 301° |
| 2026-05-08 01:06 | 41.42712 | -74.40510 | 34051 ft | 428 kts | 297° |
| 2026-05-08 01:06 | 41.44283 | -74.43825 | 34396 ft | 421 kts | 292° |
| 2026-05-08 01:06 | 41.45717 | -74.47225 | 34733 ft | 420 kts | 291° |
| 2026-05-08 01:06 | 41.47153 | -74.50625 | 35069 ft | 421 kts | 291° |
| 2026-05-08 01:07 | 41.48586 | -74.53976 | 35387 ft | 421 kts | 292° |
| 2026-05-08 01:07 | 41.50046 | -74.57370 | 35729 ft | 421 kts | 292° |
| 2026-05-08 01:07 | 41.51508 | -74.60778 | 35812 ft | 426 kts | 292° |
| 2026-05-08 01:08 | 41.54448 | -74.67633 | 35885 ft | 423 kts | 292° |
| 2026-05-08 01:08 | 41.57345 | -74.74403 | 35899 ft | 418 kts | 291° |
| 2026-05-08 01:09 | 41.60214 | -74.81131 | 35932 ft | 415 kts | 291° |
| 2026-05-08 01:09 | 41.63084 | -74.87843 | 35905 ft | 417 kts | 291° |
| 2026-05-08 01:10 | 41.65964 | -74.94584 | 35901 ft | 418 kts | 291° |
| 2026-05-08 01:10 | 41.68853 | -75.01365 | 35895 ft | 420 kts | 291° |
| 2026-05-08 01:11 | 41.71731 | -75.08134 | 35911 ft | 422 kts | 291° |
| 2026-05-08 01:11 | 41.74642 | -75.15000 | 35899 ft | 424 kts | 291° |
| 2026-05-08 01:12 | 41.77557 | -75.21889 | 35892 ft | 425 kts | 291° |
| 2026-05-08 01:12 | 41.80474 | -75.28798 | 35891 ft | 426 kts | 291° |
| 2026-05-08 01:13 | 41.83372 | -75.35679 | 35898 ft | 426 kts | 291° |
| 2026-05-08 01:13 | 41.86279 | -75.42597 | 35916 ft | 425 kts | 291° |
| 2026-05-08 01:14 | 41.89176 | -75.49513 | 35907 ft | 426 kts | 292° |
| 2026-05-08 01:14 | 41.92075 | -75.56444 | 35906 ft | 426 kts | 291° |
| 2026-05-08 01:15 | 41.94969 | -75.63380 | 35906 ft | 425 kts | 291° |
| 2026-05-08 01:15 | 41.97852 | -75.70314 | 35911 ft | 425 kts | 291° |
| 2026-05-08 01:16 | 42.00735 | -75.77260 | 35903 ft | 425 kts | 291° |
| 2026-05-08 01:16 | 42.03597 | -75.84175 | 35904 ft | 425 kts | 292° |
| 2026-05-08 01:17 | 42.06471 | -75.91136 | 35904 ft | 426 kts | 292° |
| 2026-05-08 01:17 | 42.09345 | -75.98111 | 35903 ft | 426 kts | 292° |
| 2026-05-08 01:18 | 42.12221 | -76.05108 | 35906 ft | 427 kts | 292° |
| 2026-05-08 01:18 | 42.15095 | -76.12122 | 35904 ft | 426 kts | 291° |
| 2026-05-08 01:19 | 42.17586 | -76.19335 | 35913 ft | 424 kts | 287° |